sensor_id;sensor_type;location;lat;lon;timestamp;P1;durP1;ratioP1;P2;durP2;ratioP2
53915;SDS011;39827;49.652;18.770;2023-11-19T00:02:07;2.90;;;2.80;;
53915;SDS011;39827;49.652;18.770;2023-11-19T00:04:36;3.33;;;3.17;;
53915;SDS011;39827;49.652;18.770;2023-11-19T00:07:02;2.80;;;2.70;;
53915;SDS011;39827;49.652;18.770;2023-11-19T00:09:30;3.38;;;3.28;;
53915;SDS011;39827;49.652;18.770;2023-11-19T00:11:56;3.72;;;3.53;;
53915;SDS011;39827;49.652;18.770;2023-11-19T00:14:21;2.63;;;2.53;;
53915;SDS011;39827;49.652;18.770;2023-11-19T00:16:47;2.80;;;2.70;;
53915;SDS011;39827;49.652;18.770;2023-11-19T00:19:12;2.70;;;2.60;;
53915;SDS011;39827;49.652;18.770;2023-11-19T00:21:38;2.72;;;2.63;;
53915;SDS011;39827;49.652;18.770;2023-11-19T00:24:03;2.63;;;2.53;;
53915;SDS011;39827;49.652;18.770;2023-11-19T00:26:29;7.38;;;3.97;;
53915;SDS011;39827;49.652;18.770;2023-11-19T00:28:55;2.65;;;2.55;;
53915;SDS011;39827;49.652;18.770;2023-11-19T00:31:21;2.70;;;2.60;;
53915;SDS011;39827;49.652;18.770;2023-11-19T00:33:46;2.70;;;2.60;;
53915;SDS011;39827;49.652;18.770;2023-11-19T00:36:12;2.83;;;2.72;;
53915;SDS011;39827;49.652;18.770;2023-11-19T00:38:38;2.90;;;2.80;;
53915;SDS011;39827;49.652;18.770;2023-11-19T00:41:03;2.90;;;2.80;;
53915;SDS011;39827;49.652;18.770;2023-11-19T00:43:29;2.80;;;2.70;;
53915;SDS011;39827;49.652;18.770;2023-11-19T00:45:54;2.78;;;2.67;;
53915;SDS011;39827;49.652;18.770;2023-11-19T00:48:20;2.80;;;2.70;;
53915;SDS011;39827;49.652;18.770;2023-11-19T00:50:45;2.72;;;2.63;;
53915;SDS011;39827;49.652;18.770;2023-11-19T00:53:11;2.70;;;2.60;;
53915;SDS011;39827;49.652;18.770;2023-11-19T00:55:36;2.70;;;2.60;;
53915;SDS011;39827;49.652;18.770;2023-11-19T00:58:02;2.80;;;2.70;;
53915;SDS011;39827;49.652;18.770;2023-11-19T01:00:28;3.10;;;3.00;;
53915;SDS011;39827;49.652;18.770;2023-11-19T01:02:53;2.80;;;2.70;;
53915;SDS011;39827;49.652;18.770;2023-11-19T01:05:19;3.08;;;2.97;;
53915;SDS011;39827;49.652;18.770;2023-11-19T01:07:47;2.72;;;2.63;;
53915;SDS011;39827;49.652;18.770;2023-11-19T01:10:13;3.10;;;3.00;;
53915;SDS011;39827;49.652;18.770;2023-11-19T01:12:40;2.70;;;2.60;;
53915;SDS011;39827;49.652;18.770;2023-11-19T01:15:06;2.80;;;2.70;;
53915;SDS011;39827;49.652;18.770;2023-11-19T01:17:32;2.72;;;2.63;;
53915;SDS011;39827;49.652;18.770;2023-11-19T01:19:57;2.60;;;2.50;;
53915;SDS011;39827;49.652;18.770;2023-11-19T01:22:22;2.80;;;2.70;;
53915;SDS011;39827;49.652;18.770;2023-11-19T01:24:48;2.70;;;2.60;;
53915;SDS011;39827;49.652;18.770;2023-11-19T01:27:13;2.67;;;2.58;;
53915;SDS011;39827;49.652;18.770;2023-11-19T01:29:39;2.75;;;2.65;;
53915;SDS011;39827;49.652;18.770;2023-11-19T01:32:05;2.63;;;2.53;;
53915;SDS011;39827;49.652;18.770;2023-11-19T01:34:30;2.50;;;2.40;;
53915;SDS011;39827;49.652;18.770;2023-11-19T01:36:56;2.40;;;2.30;;
53915;SDS011;39827;49.652;18.770;2023-11-19T01:39:21;2.65;;;2.55;;
53915;SDS011;39827;49.652;18.770;2023-11-19T01:41:47;2.60;;;2.50;;
53915;SDS011;39827;49.652;18.770;2023-11-19T01:44:12;2.50;;;2.40;;
53915;SDS011;39827;49.652;18.770;2023-11-19T01:46:38;2.40;;;2.30;;
53915;SDS011;39827;49.652;18.770;2023-11-19T01:49:07;2.70;;;2.60;;
53915;SDS011;39827;49.652;18.770;2023-11-19T01:51:33;2.70;;;2.60;;
53915;SDS011;39827;49.652;18.770;2023-11-19T01:53:59;2.70;;;2.60;;
53915;SDS011;39827;49.652;18.770;2023-11-19T01:56:26;2.70;;;2.60;;
53915;SDS011;39827;49.652;18.770;2023-11-19T01:58:53;2.63;;;2.53;;
53915;SDS011;39827;49.652;18.770;2023-11-19T02:01:21;2.67;;;2.55;;
53915;SDS011;39827;49.652;18.770;2023-11-19T02:03:46;3.13;;;3.03;;
53915;SDS011;39827;49.652;18.770;2023-11-19T02:06:12;2.50;;;2.40;;
53915;SDS011;39827;49.652;18.770;2023-11-19T02:08:38;2.60;;;2.50;;
53915;SDS011;39827;49.652;18.770;2023-11-19T02:11:05;2.50;;;2.40;;
53915;SDS011;39827;49.652;18.770;2023-11-19T02:13:32;2.40;;;2.30;;
53915;SDS011;39827;49.652;18.770;2023-11-19T02:15:58;2.70;;;2.60;;
53915;SDS011;39827;49.652;18.770;2023-11-19T02:18:26;2.50;;;2.40;;
53915;SDS011;39827;49.652;18.770;2023-11-19T02:20:53;2.60;;;2.50;;
53915;SDS011;39827;49.652;18.770;2023-11-19T02:23:20;3.65;;;3.45;;
53915;SDS011;39827;49.652;18.770;2023-11-19T02:26:29;2.78;;;2.67;;
53915;SDS011;39827;49.652;18.770;2023-11-19T02:28:34;2.60;;;2.50;;
53915;SDS011;39827;49.652;18.770;2023-11-19T02:31:02;2.70;;;2.60;;
53915;SDS011;39827;49.652;18.770;2023-11-19T02:33:29;2.80;;;2.70;;
53915;SDS011;39827;49.652;18.770;2023-11-19T02:35:55;2.60;;;2.50;;
53915;SDS011;39827;49.652;18.770;2023-11-19T02:38:21;2.60;;;2.50;;
53915;SDS011;39827;49.652;18.770;2023-11-19T02:40:47;2.60;;;2.50;;
53915;SDS011;39827;49.652;18.770;2023-11-19T02:43:13;2.78;;;2.67;;
53915;SDS011;39827;49.652;18.770;2023-11-19T02:45:38;3.38;;;3.17;;
53915;SDS011;39827;49.652;18.770;2023-11-19T02:48:04;2.80;;;2.70;;
53915;SDS011;39827;49.652;18.770;2023-11-19T02:50:31;2.50;;;2.40;;
53915;SDS011;39827;49.652;18.770;2023-11-19T02:52:56;2.50;;;2.40;;
53915;SDS011;39827;49.652;18.770;2023-11-19T02:55:22;2.60;;;2.50;;
53915;SDS011;39827;49.652;18.770;2023-11-19T02:57:49;2.50;;;2.40;;
53915;SDS011;39827;49.652;18.770;2023-11-19T03:02:46;2.50;;;2.40;;
53915;SDS011;39827;49.652;18.770;2023-11-19T03:05:15;2.40;;;2.30;;
53915;SDS011;39827;49.652;18.770;2023-11-19T03:07:42;2.70;;;2.60;;
53915;SDS011;39827;49.652;18.770;2023-11-19T03:10:11;2.50;;;2.40;;
53915;SDS011;39827;49.652;18.770;2023-11-19T03:12:40;2.22;;;2.13;;
53915;SDS011;39827;49.652;18.770;2023-11-19T03:15:06;2.65;;;2.55;;
53915;SDS011;39827;49.652;18.770;2023-11-19T03:17:32;2.70;;;2.60;;
53915;SDS011;39827;49.652;18.770;2023-11-19T03:19:58;2.45;;;2.35;;
53915;SDS011;39827;49.652;18.770;2023-11-19T03:22:26;2.50;;;2.40;;
53915;SDS011;39827;49.652;18.770;2023-11-19T03:24:51;2.58;;;2.47;;
53915;SDS011;39827;49.652;18.770;2023-11-19T03:27:17;2.50;;;2.40;;
53915;SDS011;39827;49.652;18.770;2023-11-19T03:29:42;3.10;;;3.00;;
53915;SDS011;39827;49.652;18.770;2023-11-19T03:32:08;2.65;;;2.55;;
53915;SDS011;39827;49.652;18.770;2023-11-19T03:34:33;2.60;;;2.50;;
53915;SDS011;39827;49.652;18.770;2023-11-19T03:36:59;3.60;;;3.42;;
53915;SDS011;39827;49.652;18.770;2023-11-19T03:39:24;4.68;;;4.47;;
53915;SDS011;39827;49.652;18.770;2023-11-19T03:41:50;2.50;;;2.40;;
53915;SDS011;39827;49.652;18.770;2023-11-19T03:44:16;2.45;;;2.35;;
53915;SDS011;39827;49.652;18.770;2023-11-19T03:46:41;3.28;;;3.08;;
53915;SDS011;39827;49.652;18.770;2023-11-19T03:49:07;3.70;;;3.50;;
53915;SDS011;39827;49.652;18.770;2023-11-19T03:51:33;13.40;;;12.65;;
53915;SDS011;39827;49.652;18.770;2023-11-19T03:53:59;2.60;;;2.50;;
53915;SDS011;39827;49.652;18.770;2023-11-19T03:56:26;2.90;;;2.80;;
53915;SDS011;39827;49.652;18.770;2023-11-19T03:58:52;24.85;;;23.30;;
53915;SDS011;39827;49.652;18.770;2023-11-19T04:01:17;14.77;;;13.95;;
53915;SDS011;39827;49.652;18.770;2023-11-19T04:03:43;7.35;;;6.97;;
53915;SDS011;39827;49.652;18.770;2023-11-19T04:06:09;2.55;;;2.45;;
53915;SDS011;39827;49.652;18.770;2023-11-19T04:08:34;2.58;;;2.47;;
53915;SDS011;39827;49.652;18.770;2023-11-19T04:11:01;2.67;;;2.58;;
53915;SDS011;39827;49.652;18.770;2023-11-19T04:13:29;2.80;;;2.70;;
53915;SDS011;39827;49.652;18.770;2023-11-19T04:15:54;2.50;;;2.40;;
53915;SDS011;39827;49.652;18.770;2023-11-19T04:18:20;2.70;;;2.60;;
53915;SDS011;39827;49.652;18.770;2023-11-19T04:20:45;2.60;;;2.50;;
53915;SDS011;39827;49.652;18.770;2023-11-19T04:23:11;2.50;;;2.40;;
53915;SDS011;39827;49.652;18.770;2023-11-19T04:25:36;2.80;;;2.70;;
53915;SDS011;39827;49.652;18.770;2023-11-19T04:28:02;2.58;;;2.47;;
53915;SDS011;39827;49.652;18.770;2023-11-19T04:30:28;2.60;;;2.50;;
53915;SDS011;39827;49.652;18.770;2023-11-19T04:32:53;2.70;;;2.60;;
53915;SDS011;39827;49.652;18.770;2023-11-19T04:35:19;2.70;;;2.60;;
53915;SDS011;39827;49.652;18.770;2023-11-19T04:37:44;2.80;;;2.70;;
53915;SDS011;39827;49.652;18.770;2023-11-19T04:40:10;2.72;;;2.63;;
53915;SDS011;39827;49.652;18.770;2023-11-19T04:42:37;2.80;;;2.70;;
53915;SDS011;39827;49.652;18.770;2023-11-19T04:45:05;2.80;;;2.70;;
53915;SDS011;39827;49.652;18.770;2023-11-19T04:47:32;2.80;;;2.70;;
53915;SDS011;39827;49.652;18.770;2023-11-19T04:49:58;3.17;;;3.08;;
53915;SDS011;39827;49.652;18.770;2023-11-19T04:52:24;2.80;;;2.70;;
53915;SDS011;39827;49.652;18.770;2023-11-19T04:54:49;45.40;;;41.70;;
53915;SDS011;39827;49.652;18.770;2023-11-19T04:57:14;3.97;;;3.78;;
53915;SDS011;39827;49.652;18.770;2023-11-19T04:59:40;3.22;;;3.13;;
53915;SDS011;39827;49.652;18.770;2023-11-19T05:02:06;3.13;;;3.03;;
53915;SDS011;39827;49.652;18.770;2023-11-19T05:04:33;7.22;;;6.70;;
53915;SDS011;39827;49.652;18.770;2023-11-19T05:06:58;10.30;;;9.70;;
53915;SDS011;39827;49.652;18.770;2023-11-19T05:09:24;2.90;;;2.80;;
53915;SDS011;39827;49.652;18.770;2023-11-19T05:11:49;2.92;;;2.83;;
53915;SDS011;39827;49.652;18.770;2023-11-19T05:14:15;5.72;;;5.40;;
53915;SDS011;39827;49.652;18.770;2023-11-19T05:16:41;2.70;;;2.60;;
53915;SDS011;39827;49.652;18.770;2023-11-19T05:19:07;3.35;;;3.15;;
53915;SDS011;39827;49.652;18.770;2023-11-19T05:21:34;5.72;;;5.43;;
53915;SDS011;39827;49.652;18.770;2023-11-19T05:24:00;2.95;;;2.85;;
53915;SDS011;39827;49.652;18.770;2023-11-19T05:26:29;6.97;;;6.63;;
53915;SDS011;39827;49.652;18.770;2023-11-19T05:28:55;7.60;;;7.20;;
53915;SDS011;39827;49.652;18.770;2023-11-19T05:31:20;2.90;;;2.80;;
53915;SDS011;39827;49.652;18.770;2023-11-19T05:33:46;9.98;;;9.38;;
53915;SDS011;39827;49.652;18.770;2023-11-19T05:36:11;21.23;;;20.02;;
53915;SDS011;39827;49.652;18.770;2023-11-19T05:38:37;61.17;;;56.63;;
53915;SDS011;39827;49.652;18.770;2023-11-19T05:41:03;48.65;;;44.90;;
53915;SDS011;39827;49.652;18.770;2023-11-19T05:43:29;13.30;;;12.50;;
53915;SDS011;39827;49.652;18.770;2023-11-19T05:45:55;105.45;;;97.05;;
53915;SDS011;39827;49.652;18.770;2023-11-19T05:48:20;48.13;;;44.83;;
53915;SDS011;39827;49.652;18.770;2023-11-19T05:50:46;90.53;;;84.07;;
53915;SDS011;39827;49.652;18.770;2023-11-19T05:53:14;16.73;;;15.68;;
53915;SDS011;39827;49.652;18.770;2023-11-19T05:55:40;3.60;;;3.47;;
53915;SDS011;39827;49.652;18.770;2023-11-19T05:58:11;4.47;;;4.27;;
53915;SDS011;39827;49.652;18.770;2023-11-19T06:00:38;3.70;;;3.50;;
53915;SDS011;39827;49.652;18.770;2023-11-19T06:03:05;3.40;;;3.28;;
53915;SDS011;39827;49.652;18.770;2023-11-19T06:05:31;3.35;;;3.22;;
53915;SDS011;39827;49.652;18.770;2023-11-19T06:07:57;4.28;;;3.60;;
53915;SDS011;39827;49.652;18.770;2023-11-19T06:10:22;17.20;;;16.10;;
53915;SDS011;39827;49.652;18.770;2023-11-19T06:12:53;7.00;;;6.60;;
53915;SDS011;39827;49.652;18.770;2023-11-19T06:15:21;63.70;;;59.78;;
53915;SDS011;39827;49.652;18.770;2023-11-19T06:17:46;13.60;;;12.75;;
53915;SDS011;39827;49.652;18.770;2023-11-19T06:20:12;25.00;;;23.60;;
53915;SDS011;39827;49.652;18.770;2023-11-19T06:22:39;37.08;;;34.30;;
53915;SDS011;39827;49.652;18.770;2023-11-19T06:25:07;132.63;;;123.30;;
53915;SDS011;39827;49.652;18.770;2023-11-19T06:27:33;44.25;;;41.42;;
53915;SDS011;39827;49.652;18.770;2023-11-19T06:29:58;6.25;;;5.85;;
53915;SDS011;39827;49.652;18.770;2023-11-19T06:32:24;6.35;;;6.05;;
53915;SDS011;39827;49.652;18.770;2023-11-19T06:34:49;5.32;;;5.03;;
53915;SDS011;39827;49.652;18.770;2023-11-19T06:37:15;13.10;;;12.40;;
53915;SDS011;39827;49.652;18.770;2023-11-19T06:39:40;6.57;;;6.28;;
53915;SDS011;39827;49.652;18.770;2023-11-19T06:42:06;10.48;;;9.88;;
53915;SDS011;39827;49.652;18.770;2023-11-19T06:44:32;6.80;;;6.47;;
53915;SDS011;39827;49.652;18.770;2023-11-19T06:46:57;6.95;;;6.60;;
53915;SDS011;39827;49.652;18.770;2023-11-19T06:49:23;2.80;;;2.70;;
53915;SDS011;39827;49.652;18.770;2023-11-19T06:51:49;4.35;;;4.13;;
53915;SDS011;39827;49.652;18.770;2023-11-19T06:54:15;4.95;;;4.65;;
53915;SDS011;39827;49.652;18.770;2023-11-19T06:56:41;3.20;;;3.08;;
53915;SDS011;39827;49.652;18.770;2023-11-19T06:59:06;14.27;;;12.93;;
53915;SDS011;39827;49.652;18.770;2023-11-19T07:01:35;5.20;;;4.90;;
53915;SDS011;39827;49.652;18.770;2023-11-19T07:04:01;5.78;;;5.47;;
53915;SDS011;39827;49.652;18.770;2023-11-19T07:06:33;28.90;;;27.10;;
53915;SDS011;39827;49.652;18.770;2023-11-19T07:08:59;7.65;;;7.25;;
53915;SDS011;39827;49.652;18.770;2023-11-19T07:11:27;3.10;;;3.00;;
53915;SDS011;39827;49.652;18.770;2023-11-19T07:13:53;10.93;;;10.18;;
53915;SDS011;39827;49.652;18.770;2023-11-19T07:16:19;5.35;;;5.05;;
53915;SDS011;39827;49.652;18.770;2023-11-19T07:18:46;39.85;;;37.22;;
53915;SDS011;39827;49.652;18.770;2023-11-19T07:21:15;4.10;;;3.90;;
53915;SDS011;39827;49.652;18.770;2023-11-19T07:23:40;71.72;;;67.25;;
53915;SDS011;39827;49.652;18.770;2023-11-19T07:26:06;7.55;;;7.05;;
53915;SDS011;39827;49.652;18.770;2023-11-19T07:28:35;19.67;;;18.52;;
53915;SDS011;39827;49.652;18.770;2023-11-19T07:31:00;29.13;;;26.98;;
53915;SDS011;39827;49.652;18.770;2023-11-19T07:33:25;20.42;;;19.27;;
53915;SDS011;39827;49.652;18.770;2023-11-19T07:35:51;59.35;;;55.53;;
53915;SDS011;39827;49.652;18.770;2023-11-19T07:38:16;15.90;;;15.00;;
53915;SDS011;39827;49.652;18.770;2023-11-19T07:40:42;23.02;;;21.30;;
53915;SDS011;39827;49.652;18.770;2023-11-19T07:43:07;30.83;;;28.90;;
53915;SDS011;39827;49.652;18.770;2023-11-19T07:45:33;121.57;;;112.80;;
53915;SDS011;39827;49.652;18.770;2023-11-19T07:47:59;69.80;;;65.47;;
53915;SDS011;39827;49.652;18.770;2023-11-19T07:50:26;37.80;;;35.08;;
53915;SDS011;39827;49.652;18.770;2023-11-19T07:52:51;12.88;;;12.13;;
53915;SDS011;39827;49.652;18.770;2023-11-19T07:55:17;132.25;;;121.22;;
53915;SDS011;39827;49.652;18.770;2023-11-19T07:57:42;98.40;;;91.20;;
53915;SDS011;39827;49.652;18.770;2023-11-19T08:00:08;9.27;;;8.70;;
53915;SDS011;39827;49.652;18.770;2023-11-19T08:02:37;20.05;;;18.75;;
53915;SDS011;39827;49.652;18.770;2023-11-19T08:05:03;34.60;;;32.53;;
53915;SDS011;39827;49.652;18.770;2023-11-19T08:07:29;71.45;;;66.07;;
53915;SDS011;39827;49.652;18.770;2023-11-19T08:09:54;3.15;;;3.05;;
53915;SDS011;39827;49.652;18.770;2023-11-19T08:12:19;12.52;;;11.70;;
53915;SDS011;39827;49.652;18.770;2023-11-19T08:14:45;3.55;;;3.35;;
53915;SDS011;39827;49.652;18.770;2023-11-19T08:17:10;32.88;;;31.02;;
53915;SDS011;39827;49.652;18.770;2023-11-19T08:19:35;19.30;;;18.10;;
53915;SDS011;39827;49.652;18.770;2023-11-19T08:22:01;19.00;;;17.77;;
53915;SDS011;39827;49.652;18.770;2023-11-19T08:24:27;4.28;;;4.07;;
53915;SDS011;39827;49.652;18.770;2023-11-19T08:26:53;4.20;;;4.00;;
53915;SDS011;39827;49.652;18.770;2023-11-19T08:29:19;4.13;;;3.92;;
53915;SDS011;39827;49.652;18.770;2023-11-19T08:31:44;12.38;;;11.13;;
53915;SDS011;39827;49.652;18.770;2023-11-19T08:34:11;33.92;;;32.00;;
53915;SDS011;39827;49.652;18.770;2023-11-19T08:36:36;4.10;;;3.90;;
53915;SDS011;39827;49.652;18.770;2023-11-19T08:39:02;8.77;;;8.32;;
53915;SDS011;39827;49.652;18.770;2023-11-19T08:41:28;7.20;;;6.80;;
53915;SDS011;39827;49.652;18.770;2023-11-19T08:43:53;68.88;;;64.07;;
53915;SDS011;39827;49.652;18.770;2023-11-19T08:46:19;7.97;;;5.75;;
53915;SDS011;39827;49.652;18.770;2023-11-19T08:48:44;5.43;;;5.13;;
53915;SDS011;39827;49.652;18.770;2023-11-19T08:51:11;4.28;;;4.07;;
53915;SDS011;39827;49.652;18.770;2023-11-19T08:53:37;14.27;;;13.32;;
53915;SDS011;39827;49.652;18.770;2023-11-19T08:56:02;48.10;;;43.17;;
53915;SDS011;39827;49.652;18.770;2023-11-19T08:58:28;7.97;;;7.57;;
53915;SDS011;39827;49.652;18.770;2023-11-19T09:00:53;3.33;;;3.22;;
53915;SDS011;39827;49.652;18.770;2023-11-19T09:03:19;42.25;;;39.47;;
53915;SDS011;39827;49.652;18.770;2023-11-19T09:05:45;5.55;;;5.25;;
53915;SDS011;39827;49.652;18.770;2023-11-19T09:08:11;31.20;;;29.30;;
53915;SDS011;39827;49.652;18.770;2023-11-19T09:10:37;3.85;;;3.65;;
53915;SDS011;39827;49.652;18.770;2023-11-19T09:13:02;18.35;;;17.17;;
53915;SDS011;39827;49.652;18.770;2023-11-19T09:15:28;33.58;;;31.55;;
53915;SDS011;39827;49.652;18.770;2023-11-19T09:17:54;7.10;;;6.47;;
53915;SDS011;39827;49.652;18.770;2023-11-19T09:20:19;3.83;;;3.63;;
53915;SDS011;39827;49.652;18.770;2023-11-19T09:22:45;34.97;;;32.72;;
53915;SDS011;39827;49.652;18.770;2023-11-19T09:25:11;23.30;;;21.50;;
53915;SDS011;39827;49.652;18.770;2023-11-19T09:27:36;9.75;;;9.23;;
53915;SDS011;39827;49.652;18.770;2023-11-19T09:30:02;15.88;;;15.00;;
53915;SDS011;39827;49.652;18.770;2023-11-19T09:32:28;61.22;;;55.28;;
53915;SDS011;39827;49.652;18.770;2023-11-19T09:34:54;136.27;;;124.32;;
53915;SDS011;39827;49.652;18.770;2023-11-19T09:37:19;6.10;;;5.80;;
53915;SDS011;39827;49.652;18.770;2023-11-19T09:39:45;21.63;;;20.42;;
53915;SDS011;39827;49.652;18.770;2023-11-19T09:42:10;177.10;;;164.30;;
53915;SDS011;39827;49.652;18.770;2023-11-19T09:44:37;10.80;;;10.02;;
53915;SDS011;39827;49.652;18.770;2023-11-19T09:47:04;4.88;;;4.68;;
53915;SDS011;39827;49.652;18.770;2023-11-19T09:49:31;12.93;;;12.23;;
53915;SDS011;39827;49.652;18.770;2023-11-19T09:51:58;2.95;;;2.85;;
53915;SDS011;39827;49.652;18.770;2023-11-19T09:54:24;11.93;;;11.15;;
53915;SDS011;39827;49.652;18.770;2023-11-19T09:56:49;20.58;;;18.88;;
53915;SDS011;39827;49.652;18.770;2023-11-19T09:59:15;61.58;;;57.03;;
53915;SDS011;39827;49.652;18.770;2023-11-19T10:01:41;13.75;;;12.88;;
53915;SDS011;39827;49.652;18.770;2023-11-19T10:04:08;150.55;;;139.20;;
53915;SDS011;39827;49.652;18.770;2023-11-19T10:06:36;67.63;;;62.78;;
53915;SDS011;39827;49.652;18.770;2023-11-19T10:09:02;63.80;;;59.25;;
53915;SDS011;39827;49.652;18.770;2023-11-19T10:11:29;89.93;;;83.55;;
53915;SDS011;39827;49.652;18.770;2023-11-19T10:13:55;32.03;;;29.98;;
53915;SDS011;39827;49.652;18.770;2023-11-19T10:16:21;62.17;;;58.00;;
53915;SDS011;39827;49.652;18.770;2023-11-19T10:18:55;86.50;;;80.53;;
53915;SDS011;39827;49.652;18.770;2023-11-19T10:21:21;6.72;;;6.32;;
53915;SDS011;39827;49.652;18.770;2023-11-19T10:23:56;10.55;;;10.00;;
53915;SDS011;39827;49.652;18.770;2023-11-19T10:26:24;169.80;;;156.23;;
53915;SDS011;39827;49.652;18.770;2023-11-19T10:28:50;22.50;;;21.02;;
53915;SDS011;39827;49.652;18.770;2023-11-19T10:31:17;232.88;;;211.88;;
53915;SDS011;39827;49.652;18.770;2023-11-19T10:33:44;35.15;;;32.88;;
53915;SDS011;39827;49.652;18.770;2023-11-19T10:36:10;37.53;;;34.97;;
53915;SDS011;39827;49.652;18.770;2023-11-19T10:38:39;76.10;;;69.50;;
53915;SDS011;39827;49.652;18.770;2023-11-19T10:41:06;77.60;;;72.47;;
53915;SDS011;39827;49.652;18.770;2023-11-19T10:43:42;31.60;;;29.67;;
53915;SDS011;39827;49.652;18.770;2023-11-19T10:46:11;141.43;;;131.05;;
53915;SDS011;39827;49.652;18.770;2023-11-19T10:48:37;135.93;;;125.80;;
53915;SDS011;39827;49.652;18.770;2023-11-19T10:51:04;188.60;;;171.63;;
53915;SDS011;39827;49.652;18.770;2023-11-19T10:53:33;55.15;;;51.58;;
53915;SDS011;39827;49.652;18.770;2023-11-19T10:56:04;230.95;;;210.88;;
53915;SDS011;39827;49.652;18.770;2023-11-19T10:58:33;47.42;;;43.88;;
53915;SDS011;39827;49.652;18.770;2023-11-19T11:01:02;229.50;;;209.73;;
53915;SDS011;39827;49.652;18.770;2023-11-19T11:03:43;21.67;;;20.48;;
53915;SDS011;39827;49.652;18.770;2023-11-19T11:06:11;165.07;;;152.93;;
53915;SDS011;39827;49.652;18.770;2023-11-19T11:08:38;66.60;;;61.88;;
53915;SDS011;39827;49.652;18.770;2023-11-19T11:11:04;178.93;;;166.38;;
53915;SDS011;39827;49.652;18.770;2023-11-19T11:13:32;106.65;;;99.18;;
53915;SDS011;39827;49.652;18.770;2023-11-19T11:15:59;77.78;;;72.63;;
53915;SDS011;39827;49.652;18.770;2023-11-19T11:18:25;199.80;;;183.68;;
53915;SDS011;39827;49.652;18.770;2023-11-19T11:20:52;139.75;;;130.30;;
53915;SDS011;39827;49.652;18.770;2023-11-19T11:37:36;460.73;;;419.25;;
53915;SDS011;39827;49.652;18.770;2023-11-19T11:40:08;235.98;;;217.57;;
53915;SDS011;39827;49.652;18.770;2023-11-19T11:42:40;219.07;;;200.55;;
53915;SDS011;39827;49.652;18.770;2023-11-19T11:50:07;28.92;;;27.05;;
53915;SDS011;39827;49.652;18.770;2023-11-19T11:57:56;94.32;;;87.68;;
53915;SDS011;39827;49.652;18.770;2023-11-19T12:00:22;68.20;;;64.15;;
53915;SDS011;39827;49.652;18.770;2023-11-19T12:02:54;153.43;;;141.50;;
53915;SDS011;39827;49.652;18.770;2023-11-19T12:05:21;197.13;;;181.73;;
53915;SDS011;39827;49.652;18.770;2023-11-19T12:08:04;152.90;;;142.32;;
53915;SDS011;39827;49.652;18.770;2023-11-19T12:10:48;245.25;;;225.00;;
53915;SDS011;39827;49.652;18.770;2023-11-19T12:13:15;276.73;;;256.50;;
53915;SDS011;39827;49.652;18.770;2023-11-19T12:18:30;169.15;;;156.52;;
53915;SDS011;39827;49.652;18.770;2023-11-19T12:20:57;273.13;;;249.40;;
53915;SDS011;39827;49.652;18.770;2023-11-19T12:23:30;155.02;;;142.30;;
53915;SDS011;39827;49.652;18.770;2023-11-19T12:25:56;127.22;;;116.82;;
53915;SDS011;39827;49.652;18.770;2023-11-19T12:28:23;225.38;;;206.13;;
53915;SDS011;39827;49.652;18.770;2023-11-19T12:30:51;172.40;;;157.02;;
53915;SDS011;39827;49.652;18.770;2023-11-19T12:33:17;301.65;;;277.98;;
53915;SDS011;39827;49.652;18.770;2023-11-19T12:35:43;265.05;;;242.82;;
53915;SDS011;39827;49.652;18.770;2023-11-19T12:38:20;397.73;;;361.92;;
53915;SDS011;39827;49.652;18.770;2023-11-19T12:40:48;111.45;;;103.70;;
53915;SDS011;39827;49.652;18.770;2023-11-19T12:43:28;203.32;;;185.65;;
53915;SDS011;39827;49.652;18.770;2023-11-19T12:45:53;258.60;;;237.63;;
53915;SDS011;39827;49.652;18.770;2023-11-19T12:48:20;237.65;;;217.52;;
53915;SDS011;39827;49.652;18.770;2023-11-19T12:53:18;85.90;;;79.97;;
53915;SDS011;39827;49.652;18.770;2023-11-19T12:55:44;218.68;;;197.77;;
53915;SDS011;39827;49.652;18.770;2023-11-19T12:58:10;190.18;;;175.70;;
53915;SDS011;39827;49.652;18.770;2023-11-19T13:00:35;360.33;;;325.10;;
53915;SDS011;39827;49.652;18.770;2023-11-19T13:03:01;152.15;;;141.50;;
53915;SDS011;39827;49.652;18.770;2023-11-19T13:08:06;77.15;;;72.07;;
53915;SDS011;39827;49.652;18.770;2023-11-19T13:10:54;232.52;;;212.07;;
53915;SDS011;39827;49.652;18.770;2023-11-19T13:13:19;270.85;;;248.30;;
53915;SDS011;39827;49.652;18.770;2023-11-19T13:15:45;127.00;;;118.75;;
53915;SDS011;39827;49.652;18.770;2023-11-19T13:18:11;138.00;;;128.25;;
53915;SDS011;39827;49.652;18.770;2023-11-19T13:20:37;278.92;;;253.38;;
53915;SDS011;39827;49.652;18.770;2023-11-19T13:23:04;190.88;;;172.93;;
53915;SDS011;39827;49.652;18.770;2023-11-19T13:25:31;222.77;;;203.45;;
53915;SDS011;39827;49.652;18.770;2023-11-19T13:27:57;407.13;;;366.77;;
53915;SDS011;39827;49.652;18.770;2023-11-19T13:30:24;199.75;;;182.60;;
53915;SDS011;39827;49.652;18.770;2023-11-19T13:32:50;188.35;;;172.32;;
53915;SDS011;39827;49.652;18.770;2023-11-19T13:35:17;248.15;;;226.00;;
53915;SDS011;39827;49.652;18.770;2023-11-19T13:37:43;190.07;;;173.10;;
53915;SDS011;39827;49.652;18.770;2023-11-19T13:40:10;142.60;;;132.30;;
53915;SDS011;39827;49.652;18.770;2023-11-19T13:42:39;251.13;;;230.52;;
53915;SDS011;39827;49.652;18.770;2023-11-19T13:45:14;196.65;;;180.80;;
53915;SDS011;39827;49.652;18.770;2023-11-19T13:47:41;293.45;;;270.13;;
53915;SDS011;39827;49.652;18.770;2023-11-19T13:50:11;119.10;;;109.90;;
53915;SDS011;39827;49.652;18.770;2023-11-19T13:52:41;30.50;;;28.33;;
53915;SDS011;39827;49.652;18.770;2023-11-19T13:55:08;33.70;;;31.77;;
53915;SDS011;39827;49.652;18.770;2023-11-19T13:57:38;59.00;;;54.28;;
53915;SDS011;39827;49.652;18.770;2023-11-19T14:00:05;178.98;;;165.48;;
53915;SDS011;39827;49.652;18.770;2023-11-19T14:02:36;115.50;;;107.37;;
53915;SDS011;39827;49.652;18.770;2023-11-19T14:05:01;100.68;;;93.25;;
53915;SDS011;39827;49.652;18.770;2023-11-19T14:07:27;135.38;;;124.13;;
53915;SDS011;39827;49.652;18.770;2023-11-19T14:09:52;124.63;;;115.30;;
53915;SDS011;39827;49.652;18.770;2023-11-19T14:12:19;135.82;;;126.60;;
53915;SDS011;39827;49.652;18.770;2023-11-19T14:14:44;103.10;;;94.32;;
53915;SDS011;39827;49.652;18.770;2023-11-19T14:17:10;29.38;;;27.63;;
53915;SDS011;39827;49.652;18.770;2023-11-19T14:19:36;58.30;;;54.15;;
53915;SDS011;39827;49.652;18.770;2023-11-19T14:22:03;7.32;;;6.85;;
53915;SDS011;39827;49.652;18.770;2023-11-19T14:24:28;121.97;;;113.88;;
53915;SDS011;39827;49.652;18.770;2023-11-19T14:26:54;76.65;;;70.97;;
53915;SDS011;39827;49.652;18.770;2023-11-19T14:29:21;2.25;;;2.15;;
53915;SDS011;39827;49.652;18.770;2023-11-19T14:31:46;2.35;;;2.25;;
53915;SDS011;39827;49.652;18.770;2023-11-19T14:34:12;2.30;;;2.20;;
53915;SDS011;39827;49.652;18.770;2023-11-19T14:36:37;20.50;;;19.23;;
53915;SDS011;39827;49.652;18.770;2023-11-19T14:39:02;5.95;;;5.60;;
53915;SDS011;39827;49.652;18.770;2023-11-19T14:41:28;6.85;;;6.53;;
53915;SDS011;39827;49.652;18.770;2023-11-19T14:43:54;3.40;;;3.28;;
53915;SDS011;39827;49.652;18.770;2023-11-19T14:46:19;118.03;;;110.30;;
53915;SDS011;39827;49.652;18.770;2023-11-19T14:48:45;19.00;;;17.80;;
53915;SDS011;39827;49.652;18.770;2023-11-19T14:51:10;11.00;;;8.50;;